Main page
METAR-TAF:

METAR-TAF

Airports :

Pamplona Airport

Pamplona, Spain

latitude: 42-46N, longitude: 001-38W, elevation: 459 m

Current weather observation

The report was made 19 minutes ago, at 08:00 UTC
Wind 1 kt from variable directions
Temperature 11°C
Humidity 76%
Pressure 1018 hPa
Visibility 10 km or more
Few clouds at a height of 5500 ft

METAR: LEPP 180800Z VRB01KT 9999 FEW055 11/07 Q1018

Time: 10:19 (08:19 UTC)

Forecast

The report was made 6 hours and 19 minutes ago, at 02:00 UTC
Forecast valid from 18 at 03 UTC to 19 at 03 UTC
Wind 6 kt from variable directions
Visibility 10 km or more
Scattered clouds at a height of 3000 ft
Temporary
from 18 at 09 UTC to 18 at 14 UTC
Wind 10 kt from the Southwest
Becoming
from 18 at 13 UTC to 18 at 15 UTC
Wind 14 kt from the North
Temporary
from 18 at 13 UTC to 18 at 19 UTC
Wind 16 kt from the North with gusts up to 28 kt

TAF: LEPP 180200Z 1803/1903 VRB06KT 9999 SCT030 TX22/1814Z TN07/1805Z TEMPO 1809/1814 22010KT BECMG 1813/1815 35014KT TEMPO 1813/1819 36016G28KT

Weather observations and forecasts of more than 4000 airports (METAR and TAF reports).

The available stations are represented by yellow and red dots on the map.

Hover mouse over dot to see the name of the station.

Then click to see weather observations and forecasts.

To change the map : click on the green buttons with a black cross to zoom in, on the green button with a dash to zoom out, or on the green arrows for adjacent maps.


METAR-TAF: